Time;durP1;ratioP1;P1;durP2;ratioP2;P2;SDS_P1;SDS_P2;PMS_P1;PMS_P2;Temp;Humidity;BMP_temperature;BMP_pressure;BME280_temperature;BME280_humidity;BME280_pressure;Samples;Min_cycle;Max_cycle;Signal;HPM_P1;HPM_P2
2024/01/10 00:01:42;;;;;;;;;;;;;;;;;;5088973;28;19967;-86
2024/01/10 00:04:08;;;;;;;;;;;;;;;;;;5085876;28;19912;-87
2024/01/10 00:06:34;;;;;;;;;;;;;;;;;;5091038;28;19947;-87
2024/01/10 00:09:00;;;;;;;;;;;;;;;;;;5091295;28;19973;-87
2024/01/10 00:11:26;;;;;;;;;;;;;;;;;;5090701;28;20003;-87
2024/01/10 00:13:51;;;;;;;;;;;;;;;;;;5090115;28;19912;-87
2024/01/10 00:16:17;;;;;;;;;;;;;;;;;;5085902;28;19916;-88
2024/01/10 00:18:43;;;;;;;;;;;;;;;;;;5090322;28;19911;-88
2024/01/10 00:21:09;;;;;;;;;;;;;;;;;;5090019;28;20052;-87
2024/01/10 00:23:35;;;;;;;;;;;;;;;;;;5090503;28;19924;-88
2024/01/10 00:26:01;;;;;;;;;;;;;;;;;;5091009;28;19934;-88
2024/01/10 00:28:26;;;;;;;;;;;;;;;;;;5090292;28;19999;-88
2024/01/10 00:30:52;;;;;;;;;;;;;;;;;;5078246;28;19927;-89
2024/01/10 00:33:18;;;;;;;;;;;;;;;;;;5089389;28;20362;-88
2024/01/10 00:35:44;;;;;;;;;;;;;;;;;;5089248;28;19912;-88
2024/01/10 00:38:10;;;;;;;;;;;;;;;;;;5088618;28;19913;-88
2024/01/10 00:40:36;;;;;;;;;;;;;;;;;;5092057;28;19943;-87
2024/01/10 00:43:02;;;;;;;;;;;;;;;;;;5088225;28;19924;-87
2024/01/10 00:45:27;;;;;;;;;;;;;;;;;;5088641;28;19953;-87
2024/01/10 00:47:53;;;;;;;;;;;;;;;;;;5087490;28;19923;-88
2024/01/10 00:50:19;;;;;;;;;;;;;;;;;;5089971;28;19916;-87
2024/01/10 00:52:45;;;;;;;;;;;;;;;;;;5088779;28;19913;-87
2024/01/10 00:55:11;;;;;;;;;;;;;;;;;;5090756;28;19912;-88
2024/01/10 00:57:38;;;;;;;;;;;;;;;;;;5089596;28;19912;-87
2024/01/10 01:00:03;;;;;;;;;;;;;;;;;;5087834;28;19912;-87
2024/01/10 01:02:29;;;;;;;;;;;;;;;;;;5084373;28;19928;-87
2024/01/10 01:04:55;;;;;;;;;;;;;;;;;;5077284;28;19916;-87
2024/01/10 01:07:21;;;;;;;;;;;;;;;;;;5085232;28;19916;-86
2024/01/10 01:09:47;;;;;;;;;;;;;;;;;;5076865;28;19912;-87
2024/01/10 01:12:13;;;;;;;;;;;;;;;;;;5089860;28;20019;-87
2024/01/10 01:14:38;;;;;;;;;;;;;;;;;;5088422;28;19916;-87
2024/01/10 01:17:04;;;;;;;;;;;;;;;;;;5086942;28;20297;-87
2024/01/10 01:19:30;;;;;;;;;;;;;;;;;;5081002;28;20512;-87
2024/01/10 01:21:56;;;;;;;;;;;;;;;;;;5090132;28;19912;-87
2024/01/10 01:24:22;;;;;;;;;;;;;;;;;;5086428;28;19924;-88
2024/01/10 01:26:48;;;;;;;;;;;;;;;;;;5079461;28;19939;-86
2024/01/10 01:29:13;;;;;;;;;;;;;;;;;;5078847;28;19913;-87
2024/01/10 01:31:39;;;;;;;;;;;;;;;;;;5088546;28;20445;-87
2024/01/10 01:34:05;;;;;;;;;;;;;;;;;;5080318;28;20519;-87
2024/01/10 01:36:31;;;;;;;;;;;;;;;;;;5088649;28;19981;-86
2024/01/10 01:38:57;;;;;;;;;;;;;;;;;;5089435;28;20674;-87
2024/01/10 01:41:23;;;;;;;;;;;;;;;;;;5080571;28;20279;-87
2024/01/10 01:43:49;;;;;;;;;;;;;;;;;;5087115;28;19974;-87
2024/01/10 01:46:15;;;;;;;;;;;;;;;;;;5082948;28;20015;-87
2024/01/10 01:48:41;;;;;;;;;;;;;;;;;;5084215;28;19912;-87
2024/01/10 01:51:07;;;;;;;;;;;;;;;;;;5089681;28;20054;-87
2024/01/10 01:53:33;;;;;;;;;;;;;;;;;;5076147;28;20019;-87
2024/01/10 01:55:59;;;;;;;;;;;;;;;;;;5069898;28;19952;-87
2024/01/10 01:58:25;;;;;;;;;;;;;;;;;;5083554;28;19916;-87
2024/01/10 02:00:51;;;;;;;;;;;;;;;;;;5081562;28;19922;-87
2024/01/10 02:03:17;;;;;;;;;;;;;;;;;;5086326;28;20374;-86
2024/01/10 02:05:42;;;;;;;;;;;;;;;;;;5080292;28;20274;-87
2024/01/10 02:08:08;;;;;;;;;;;;;;;;;;5082476;28;20315;-86
2024/01/10 02:10:34;;;;;;;;;;;;;;;;;;5088685;28;19942;-87
2024/01/10 02:13:00;;;;;;;;;;;;;;;;;;5086402;28;19916;-86
2024/01/10 02:15:26;;;;;;;;;;;;;;;;;;5079406;28;19912;-86
2024/01/10 02:17:52;;;;;;;;;;;;;;;;;;5088671;28;19966;-86
2024/01/10 02:20:18;;;;;;;;;;;;;;;;;;5088994;28;19916;-87
2024/01/10 02:22:43;;;;;;;;;;;;;;;;;;5087969;28;19955;-87
2024/01/10 02:25:09;;;;;;;;;;;;;;;;;;5079602;28;19955;-86
2024/01/10 02:27:35;;;;;;;;;;;;;;;;;;5086466;28;19920;-87
2024/01/10 02:30:01;;;;;;;;;;;;;;;;;;5087914;28;19924;-87
2024/01/10 02:32:27;;;;;;;;;;;;;;;;;;5077052;28;19974;-87
2024/01/10 02:34:53;;;;;;;;;;;;;;;;;;5088943;28;19916;-87
2024/01/10 02:37:19;;;;;;;;;;;;;;;;;;5087863;28;19913;-87
2024/01/10 02:39:44;;;;;;;;;;;;;;;;;;5081958;28;19974;-87
2024/01/10 02:42:10;;;;;;;;;;;;;;;;;;5071904;28;20030;-87
2024/01/10 02:44:36;;;;;;;;;;;;;;;;;;5081641;28;19919;-87
2024/01/10 02:47:02;;;;;;;;;;;;;;;;;;5087530;28;19916;-87
2024/01/10 02:49:28;;;;;;;;;;;;;;;;;;5080812;28;19989;-87
2024/01/10 02:51:54;;;;;;;;;;;;;;;;;;5088091;28;19912;-87
2024/01/10 02:54:20;;;;;;;;;;;;;;;;;;5091813;28;20332;-87
2024/01/10 02:56:46;;;;;;;;;;;;;;;;;;5092066;28;19912;-88
2024/01/10 02:59:11;;;;;;;;;;;;;;;;;;5084691;28;19935;-88
2024/01/10 03:01:37;;;;;;;;;;;;;;;;;;5087504;28;19920;-86
2024/01/10 03:04:03;;;;;;;;;;;;;;;;;;5087388;28;19927;-88
2024/01/10 03:06:29;;;;;;;;;;;;;;;;;;5092979;28;19916;-87
2024/01/10 03:08:55;;;;;;;;;;;;;;;;;;5103203;28;20696;-87
2024/01/10 03:11:21;;;;;;;;;;;;;;;;;;5089363;28;19920;-85
2024/01/10 03:13:47;;;;;;;;;;;;;;;;;;5078666;28;20576;-85
2024/01/10 03:16:13;;;;;;;;;;;;;;;;;;5080212;28;19916;-86
2024/01/10 03:18:38;;;;;;;;;;;;;;;;;;5085746;28;19912;-88
2024/01/10 03:21:04;;;;;;;;;;;;;;;;;;5091697;28;19912;-88
2024/01/10 03:23:30;;;;;;;;;;;;;;;;;;5092868;28;19939;-85
2024/01/10 03:25:56;;;;;;;;;;;;;;;;;;5084788;28;20049;-85
2024/01/10 03:28:22;;;;;;;;;;;;;;;;;;5087716;28;19908;-86
2024/01/10 03:30:48;;;;;;;;;;;;;;;;;;5091790;28;20011;-86
2024/01/10 03:33:15;;;;;;;;;;;;;;;;;;5084435;28;20318;-85
2024/01/10 03:35:41;;;;;;;;;;;;;;;;;;5085326;28;20011;-86
2024/01/10 03:38:06;;;;;;;;;;;;;;;;;;5085807;28;20604;-87
2024/01/10 03:40:32;;;;;;;;;;;;;;;;;;5084291;28;20815;-86
2024/01/10 03:42:58;;;;;;;;;;;;;;;;;;5090819;28;19912;-85
2024/01/10 03:45:24;;;;;;;;;;;;;;;;;;5083050;28;20024;-86
2024/01/10 03:47:50;;;;;;;;;;;;;;;;;;5088675;28;20094;-85
2024/01/10 03:50:16;;;;;;;;;;;;;;;;;;5089149;28;20350;-86
2024/01/10 03:52:42;;;;;;;;;;;;;;;;;;5089981;28;19916;-85
2024/01/10 03:55:08;;;;;;;;;;;;;;;;;;5089113;28;19978;-85
2024/01/10 03:57:34;;;;;;;;;;;;;;;;;;5088078;28;19970;-85
2024/01/10 04:00:00;;;;;;;;;;;;;;;;;;5077412;28;19960;-85
2024/01/10 04:02:27;;;;;;;;;;;;;;;;;;5086816;28;19919;-85
2024/01/10 04:04:53;;;;;;;;;;;;;;;;;;5086530;28;19940;-85
2024/01/10 04:07:19;;;;;;;;;;;;;;;;;;5088588;28;19916;-86
2024/01/10 04:09:45;;;;;;;;;;;;;;;;;;5086746;28;19912;-85
2024/01/10 04:12:11;;;;;;;;;;;;;;;;;;5087218;28;19973;-86
2024/01/10 04:14:36;;;;;;;;;;;;;;;;;;5085942;28;19916;-86
2024/01/10 04:17:04;;;;;;;;;;;;;;;;;;5089324;28;19927;-86
2024/01/10 04:19:30;;;;;;;;;;;;;;;;;;5091070;28;19919;-87
2024/01/10 04:21:56;;;;;;;;;;;;;;;;;;5093251;28;19916;-86
2024/01/10 04:24:22;;;;;;;;;;;;;;;;;;5083970;28;19928;-86
2024/01/10 04:26:48;;;;;;;;;;;;;;;;;;5089770;28;19920;-87
2024/01/10 04:29:14;;;;;;;;;;;;;;;;;;5077425;28;19995;-87
2024/01/10 04:31:40;;;;;;;;;;;;;;;;;;5082378;28;19912;-84
2024/01/10 04:34:05;;;;;;;;;;;;;;;;;;5089187;28;19912;-84
2024/01/10 04:36:31;;;;;;;;;;;;;;;;;;5088051;28;19995;-85
2024/01/10 04:38:57;;;;;;;;;;;;;;;;;;5089057;28;19943;-84
2024/01/10 04:41:23;;;;;;;;;;;;;;;;;;5086620;28;19912;-82
2024/01/10 04:43:49;;;;;;;;;;;;;;;;;;5080600;28;20014;-86
2024/01/10 04:46:15;;;;;;;;;;;;;;;;;;5084536;28;19965;-86
2024/01/10 04:48:41;;;;;;;;;;;;;;;;;;5088161;28;20279;-86
2024/01/10 04:51:07;;;;;;;;;;;;;;;;;;5076100;28;19915;-86
2024/01/10 04:53:32;;;;;;;;;;;;;;;;;;5086702;28;20107;-86
2024/01/10 04:55:58;;;;;;;;;;;;;;;;;;5082696;28;19954;-86
2024/01/10 04:58:24;;;;;;;;;;;;;;;;;;5085055;28;19955;-86
2024/01/10 05:00:50;;;;;;;;;;;;;;;;;;5082798;28;19948;-85
2024/01/10 05:03:16;;;;;;;;;;;;;;;;;;5089429;28;19912;-84
2024/01/10 05:05:42;;;;;;;;;;;;;;;;;;5081208;28;20462;-85
2024/01/10 05:08:07;;;;;;;;;;;;;;;;;;5084802;28;20418;-85
2024/01/10 05:10:33;;;;;;;;;;;;;;;;;;5078406;28;20290;-85
2024/01/10 05:12:59;;;;;;;;;;;;;;;;;;5080679;28;19943;-84
2024/01/10 05:15:25;;;;;;;;;;;;;;;;;;5089457;28;19916;-85
2024/01/10 05:17:51;;;;;;;;;;;;;;;;;;5083631;28;20345;-85
2024/01/10 05:20:17;;;;;;;;;;;;;;;;;;5075558;28;19908;-85
2024/01/10 05:22:43;;;;;;;;;;;;;;;;;;5084004;28;20298;-85
2024/01/10 05:25:09;;;;;;;;;;;;;;;;;;5088028;28;19997;-88
2024/01/10 05:27:35;;;;;;;;;;;;;;;;;;5085376;28;19928;-85
2024/01/10 05:30:00;;;;;;;;;;;;;;;;;;5070189;28;20279;-85
2024/01/10 05:32:26;;;;;;;;;;;;;;;;;;5085825;28;20077;-87
2024/01/10 05:34:52;;;;;;;;;;;;;;;;;;5080144;28;19948;-86
2024/01/10 05:37:18;;;;;;;;;;;;;;;;;;5080040;28;19916;-85
2024/01/10 05:39:44;;;;;;;;;;;;;;;;;;5085129;28;19918;-81
2024/01/10 05:42:10;;;;;;;;;;;;;;;;;;5085157;28;19912;-87
2024/01/10 05:44:36;;;;;;;;;;;;;;;;;;5085228;28;19912;-87
2024/01/10 05:47:02;;;;;;;;;;;;;;;;;;5083128;28;19977;-87
2024/01/10 05:49:28;;;;;;;;;;;;;;;;;;5078908;28;19916;-85
2024/01/10 05:51:54;;;;;;;;;;;;;;;;;;5086738;28;20366;-87
2024/01/10 05:54:20;;;;;;;;;;;;;;;;;;5089225;28;19909;-86
2024/01/10 05:56:46;;;;;;;;;;;;;;;;;;5088623;28;19923;-86
2024/01/10 05:59:12;;;;;;;;;;;;;;;;;;5087854;28;19915;-87
2024/01/10 06:01:40;;;;;;;;;;;;;;;;;;5086667;28;19941;-87
2024/01/10 06:04:06;;;;;;;;;;;;;;;;;;5079744;28;20472;-86
2024/01/10 06:06:32;;;;;;;;;;;;;;;;;;5084286;28;19949;-87
2024/01/10 06:08:58;;;;;;;;;;;;;;;;;;5086695;28;20293;-87
2024/01/10 06:11:23;;;;;;;;;;;;;;;;;;5086756;28;20191;-87
2024/01/10 06:13:49;;;;;;;;;;;;;;;;;;5080896;28;19940;-86
2024/01/10 06:16:16;;;;;;;;;;;;;;;;;;5087804;28;19919;-84
2024/01/10 06:18:42;;;;;;;;;;;;;;;;;;5088317;28;20301;-87
2024/01/10 06:21:08;;;;;;;;;;;;;;;;;;5086719;28;19923;-84
2024/01/10 06:23:34;;;;;;;;;;;;;;;;;;5081807;28;20020;-83
2024/01/10 06:26:00;;;;;;;;;;;;;;;;;;5077799;28;19990;-84
2024/01/10 06:28:25;;;;;;;;;;;;;;;;;;5087278;28;19912;-84
2024/01/10 06:30:52;;;;;;;;;;;;;;;;;;5089008;28;20397;-83
2024/01/10 06:33:19;;;;;;;;;;;;;;;;;;5085873;28;19916;-83
2024/01/10 06:35:45;;;;;;;;;;;;;;;;;;5076129;28;20339;-83
2024/01/10 06:38:11;;;;;;;;;;;;;;;;;;5090752;28;19922;-83
2024/01/10 06:40:37;;;;;;;;;;;;;;;;;;5088051;28;19912;-84
2024/01/10 06:43:03;;;;;;;;;;;;;;;;;;5091397;28;20437;-83
2024/01/10 06:45:29;;;;;;;;;;;;;;;;;;5084129;28;19916;-83
2024/01/10 06:47:55;;;;;;;;;;;;;;;;;;5078540;28;19916;-84
2024/01/10 06:50:21;;;;;;;;;;;;;;;;;;5076397;28;19908;-84
2024/01/10 06:52:48;;;;;;;;;;;;;;;;;;5090511;28;19923;-84
2024/01/10 06:55:13;;;;;;;;;;;;;;;;;;5091864;28;19946;-83
2024/01/10 06:57:39;;;;;;;;;;;;;;;;;;5079138;28;20418;-84
2024/01/10 07:00:10;;;;;;;;;;;;;;;;;;5084191;28;19920;-83
2024/01/10 07:02:36;;;;;;;;;;;;;;;;;;5090902;28;20439;-83
2024/01/10 07:05:02;;;;;;;;;;;;;;;;;;5088117;28;19917;-84
2024/01/10 07:07:28;;;;;;;;;;;;;;;;;;5088143;28;19920;-83
2024/01/10 07:09:54;;;;;;;;;;;;;;;;;;5071992;28;19913;-83
2024/01/10 07:12:20;;;;;;;;;;;;;;;;;;5078363;28;19916;-83
2024/01/10 07:14:46;;;;;;;;;;;;;;;;;;5091891;28;19908;-83
2024/01/10 07:17:12;;;;;;;;;;;;;;;;;;5086183;28;20542;-84
2024/01/10 07:19:38;;;;;;;;;;;;;;;;;;5086707;28;19921;-83
2024/01/10 07:22:04;;;;;;;;;;;;;;;;;;5087131;28;20007;-84
2024/01/10 07:24:30;;;;;;;;;;;;;;;;;;5089806;28;20353;-84
2024/01/10 07:26:57;;;;;;;;;;;;;;;;;;5091065;28;19916;-84
2024/01/10 07:29:22;;;;;;;;;;;;;;;;;;5088294;28;19919;-85
2024/01/10 07:31:48;;;;;;;;;;;;;;;;;;5084493;28;20018;-84
2024/01/10 07:34:14;;;;;;;;;;;;;;;;;;5092799;28;19915;-84
2024/01/10 07:36:40;;;;;;;;;;;;;;;;;;5085417;28;20439;-84
2024/01/10 07:39:06;;;;;;;;;;;;;;;;;;5087848;28;20264;-84
2024/01/10 07:41:32;;;;;;;;;;;;;;;;;;5072546;28;19909;-84
2024/01/10 07:43:58;;;;;;;;;;;;;;;;;;5086302;28;20381;-84
2024/01/10 07:46:24;;;;;;;;;;;;;;;;;;5074260;28;19955;-83
2024/01/10 07:48:50;;;;;;;;;;;;;;;;;;5072394;28;20283;-84
2024/01/10 07:51:16;;;;;;;;;;;;;;;;;;5071917;28;19931;-85
2024/01/10 07:53:41;;;;;;;;;;;;;;;;;;5074099;28;19919;-85
2024/01/10 07:56:07;;;;;;;;;;;;;;;;;;5081507;28;19913;-85
2024/01/10 07:58:33;;;;;;;;;;;;;;;;;;5071194;28;19954;-85
2024/01/10 08:00:59;;;;;;;;;;;;;;;;;;5081637;28;19908;-85
2024/01/10 08:03:25;;;;;;;;;;;;;;;;;;5088874;28;20447;-85
2024/01/10 08:05:51;;;;;;;;;;;;;;;;;;5079907;28;19916;-85
2024/01/10 08:08:16;;;;;;;;;;;;;;;;;;5074862;28;19920;-85
2024/01/10 08:10:42;;;;;;;;;;;;;;;;;;5086147;28;19958;-86
2024/01/10 08:13:08;;;;;;;;;;;;;;;;;;5088969;28;20297;-87
2024/01/10 08:15:34;;;;;;;;;;;;;;;;;;5081080;28;19908;-85
2024/01/10 08:18:02;;;;;;;;;;;;;;;;;;5091315;28;19908;-86
2024/01/10 08:20:28;;;;;;;;;;;;;;;;;;5090418;28;19999;-85
2024/01/10 08:22:54;;;;;;;;;;;;;;;;;;5085105;28;19991;-85
2024/01/10 08:25:20;;;;;;;;;;;;;;;;;;5089596;28;19919;-85
2024/01/10 08:27:46;;;;;;;;;;;;;;;;;;5089257;28;20236;-85
2024/01/10 08:30:12;;;;;;;;;;;;;;;;;;5089605;28;19912;-86
2024/01/10 08:32:38;;;;;;;;;;;;;;;;;;5079230;28;20282;-86
2024/01/10 08:35:08;;;;;;;;;;;;;;;;;;5087788;28;19923;-87
2024/01/10 08:37:34;;;;;;;;;;;;;;;;;;5093809;28;19912;-87
2024/01/10 08:40:06;;;;;;;;;;;;;;;;;;5082590;28;19962;-86
2024/01/10 08:42:32;;;;;;;;;;;;;;;;;;5091521;28;19983;-86
2024/01/10 08:44:58;;;;;;;;;;;;;;;;;;5088354;28;19969;-86
2024/01/10 08:47:24;;;;;;;;;;;;;;;;;;5087906;28;20160;-81
2024/01/10 08:49:50;;;;;;;;;;;;;;;;;;5085920;28;19923;-84
2024/01/10 08:52:16;;;;;;;;;;;;;;;;;;5087206;28;19954;-81
2024/01/10 08:54:42;;;;;;;;;;;;;;;;;;5090886;28;19954;-85
2024/01/10 08:57:08;;;;;;;;;;;;;;;;;;5087600;28;19999;-84
2024/01/10 08:59:34;;;;;;;;;;;;;;;;;;5089816;28;20027;-85
2024/01/10 09:02:00;;;;;;;;;;;;;;;;;;5085209;28;19916;-86
2024/01/10 09:04:26;;;;;;;;;;;;;;;;;;5070038;28;19912;-85
2024/01/10 09:06:52;;;;;;;;;;;;;;;;;;5084466;28;20437;-84
2024/01/10 09:09:21;;;;;;;;;;;;;;;;;;5089668;28;19916;-85
2024/01/10 09:11:48;;;;;;;;;;;;;;;;;;5083976;28;19990;-84
2024/01/10 09:14:14;;;;;;;;;;;;;;;;;;5083129;28;19912;-85
2024/01/10 09:16:40;;;;;;;;;;;;;;;;;;5086684;28;20278;-85
2024/01/10 09:19:05;;;;;;;;;;;;;;;;;;5090603;28;20541;-87
2024/01/10 09:21:31;;;;;;;;;;;;;;;;;;5089502;28;19915;-85
2024/01/10 09:23:57;;;;;;;;;;;;;;;;;;5090198;28;19956;-88
2024/01/10 09:26:23;;;;;;;;;;;;;;;;;;5086907;28;19923;-78
2024/01/10 09:28:49;;;;;;;;;;;;;;;;;;5076717;28;19909;-78
2024/01/10 09:31:16;;;;;;;;;;;;;;;;;;5079157;28;21315;-77
2024/01/10 09:33:43;;;;;;;;;;;;;;;;;;5088830;28;19927;-76
2024/01/10 09:36:09;;;;;;;;;;;;;;;;;;5072423;28;19912;-78
2024/01/10 09:38:34;;;;;;;;;;;;;;;;;;5083856;28;20011;-76
2024/01/10 09:41:03;;;;;;;;;;;;;;;;;;5086734;28;19912;-76
2024/01/10 09:43:29;;;;;;;;;;;;;;;;;;5075132;28;19916;-76
2024/01/10 09:45:57;;;;;;;;;;;;;;;;;;5066921;28;20270;-78
2024/01/10 09:48:23;;;;;;;;;;;;;;;;;;5068663;28;19919;-79
2024/01/10 09:50:49;;;;;;;;;;;;;;;;;;5069566;28;19912;-77
2024/01/10 09:53:15;;;;;;;;;;;;;;;;;;5088890;28;19908;-77
2024/01/10 09:55:42;;;;;;;;;;;;;;;;;;5088160;28;19920;-78
2024/01/10 09:58:08;;;;;;;;;;;;;;;;;;5074767;28;19916;-78
2024/01/10 10:00:37;;;;;;;;;;;;;;;;;;5068287;28;19936;-77
2024/01/10 10:03:03;;;;;;;;;;;;;;;;;;5082170;28;20222;-78
2024/01/10 10:05:29;;;;;;;;;;;;;;;;;;5068198;28;20006;-78
2024/01/10 10:07:55;;;;;;;;;;;;;;;;;;5068381;28;19912;-77
2024/01/10 10:10:21;;;;;;;;;;;;;;;;;;5068544;28;20367;-77
2024/01/10 10:12:47;;;;;;;;;;;;;;;;;;5071286;28;19927;-78
2024/01/10 10:15:13;;;;;;;;;;;;;;;;;;5072153;28;19954;-77
2024/01/10 10:17:45;;;;;;;;;;;;;;;;;;5074663;28;19966;-77
2024/01/10 10:20:13;;;;;;;;;;;;;;;;;;5076636;28;19919;-78
2024/01/10 10:22:39;;;;;;;;;;;;;;;;;;5088405;28;20005;-77
2024/01/10 10:25:05;;;;;;;;;;;;;;;;;;5079827;28;19955;-77
2024/01/10 10:27:31;;;;;;;;;;;;;;;;;;5083993;28;19931;-77
2024/01/10 10:29:56;;;;;;;;;;;;;;;;;;5088709;28;19908;-77
2024/01/10 10:32:22;;;;;;;;;;;;;;;;;;5088328;28;19908;-77
2024/01/10 10:34:48;;;;;;;;;;;;;;;;;;5087814;28;19912;-77
2024/01/10 10:37:14;;;;;;;;;;;;;;;;;;5094061;28;19957;-78
2024/01/10 10:39:41;;;;;;;;;;;;;;;;;;5088407;28;19919;-77
2024/01/10 10:42:07;;;;;;;;;;;;;;;;;;5085411;28;20303;-78
2024/01/10 10:44:33;;;;;;;;;;;;;;;;;;5070015;28;19919;-78
2024/01/10 10:46:59;;;;;;;;;;;;;;;;;;5068048;28;19916;-78
2024/01/10 10:49:25;;;;;;;;;;;;;;;;;;5071360;28;20007;-77
2024/01/10 10:51:50;;;;;;;;;;;;;;;;;;5072618;28;19916;-78
2024/01/10 10:54:18;;;;;;;;;;;;;;;;;;5068148;28;20350;-76
2024/01/10 10:56:43;;;;;;;;;;;;;;;;;;5074378;28;19999;-77
2024/01/10 10:59:09;;;;;;;;;;;;;;;;;;5068054;28;20007;-77
2024/01/10 11:01:35;;;;;;;;;;;;;;;;;;5067858;28;19915;-77
2024/01/10 11:04:01;;;;;;;;;;;;;;;;;;5068086;28;19955;-77
2024/01/10 11:06:27;;;;;;;;;;;;;;;;;;5071244;28;19923;-77
2024/01/10 11:08:53;;;;;;;;;;;;;;;;;;5088223;28;19908;-77
2024/01/10 11:11:19;;;;;;;;;;;;;;;;;;5085523;28;20286;-77
2024/01/10 11:13:45;;;;;;;;;;;;;;;;;;5069888;28;20453;-77
2024/01/10 11:16:11;;;;;;;;;;;;;;;;;;5071326;28;19913;-77
2024/01/10 11:18:37;;;;;;;;;;;;;;;;;;5088155;28;19918;-77
2024/01/10 11:21:03;;;;;;;;;;;;;;;;;;5090003;28;19959;-77
2024/01/10 11:23:28;;;;;;;;;;;;;;;;;;5071073;28;19920;-77
2024/01/10 11:25:54;;;;;;;;;;;;;;;;;;5077752;28;20313;-77
2024/01/10 11:28:20;;;;;;;;;;;;;;;;;;5084488;28;19995;-77
2024/01/10 11:30:46;;;;;;;;;;;;;;;;;;5085198;28;19916;-78
2024/01/10 11:33:12;;;;;;;;;;;;;;;;;;5071078;28;19930;-77
2024/01/10 11:35:38;;;;;;;;;;;;;;;;;;5071103;28;19912;-77
2024/01/10 11:38:03;;;;;;;;;;;;;;;;;;5071106;28;20720;-76
2024/01/10 11:40:29;;;;;;;;;;;;;;;;;;5075893;28;20294;-76
2024/01/10 11:42:55;;;;;;;;;;;;;;;;;;5081787;28;19981;-77
2024/01/10 11:45:21;;;;;;;;;;;;;;;;;;5070905;28;19908;-78
2024/01/10 11:47:47;;;;;;;;;;;;;;;;;;5070344;28;19916;-77
2024/01/10 11:50:13;;;;;;;;;;;;;;;;;;5070892;28;19962;-77
2024/01/10 11:52:39;;;;;;;;;;;;;;;;;;5090279;28;19962;-76
2024/01/10 11:55:07;;;;;;;;;;;;;;;;;;5090847;28;19940;-77
2024/01/10 11:57:32;;;;;;;;;;;;;;;;;;5080908;28;19958;-76
2024/01/10 12:00:05;;;;;;;;;;;;;;;;;;5070602;28;19967;-77
2024/01/10 12:02:31;;;;;;;;;;;;;;;;;;5085234;28;19908;-76
2024/01/10 12:04:57;;;;;;;;;;;;;;;;;;5090707;28;20110;-77
2024/01/10 12:07:24;;;;;;;;;;;;;;;;;;5090722;28;19977;-78
2024/01/10 12:09:50;;;;;;;;;;;;;;;;;;5090379;28;19908;-78
2024/01/10 12:12:16;;;;;;;;;;;;;;;;;;5090336;28;20283;-78
2024/01/10 12:14:45;;;;;;;;;;;;;;;;;;5089208;28;20091;-77
2024/01/10 12:17:11;;;;;;;;;;;;;;;;;;5081058;28;19974;-77
2024/01/10 12:19:38;;;;;;;;;;;;;;;;;;5074826;28;20386;-79
2024/01/10 12:22:05;;;;;;;;;;;;;;;;;;5080809;28;20003;-78
2024/01/10 12:24:31;;;;;;;;;;;;;;;;;;5075516;28;19982;-80
2024/01/10 12:26:56;;;;;;;;;;;;;;;;;;5088368;28;20366;-80
2024/01/10 12:29:24;;;;;;;;;;;;;;;;;;5079936;28;19944;-82
2024/01/10 12:31:50;;;;;;;;;;;;;;;;;;5077012;28;19919;-84
2024/01/10 12:34:15;;;;;;;;;;;;;;;;;;5084303;28;19995;-84
2024/01/10 12:36:41;;;;;;;;;;;;;;;;;;5073841;28;19962;-83
2024/01/10 12:39:07;;;;;;;;;;;;;;;;;;5074267;28;20362;-80
2024/01/10 12:41:33;;;;;;;;;;;;;;;;;;5087888;28;19916;-79
2024/01/10 12:44:02;;;;;;;;;;;;;;;;;;5073853;28;19981;-78
2024/01/10 12:46:28;;;;;;;;;;;;;;;;;;5087468;28;19925;-85
2024/01/10 12:48:53;;;;;;;;;;;;;;;;;;5085320;28;20057;-84
2024/01/10 12:51:19;;;;;;;;;;;;;;;;;;5074261;28;19912;-90
2024/01/10 12:53:45;;;;;;;;;;;;;;;;;;5083771;28;19928;-82
2024/01/10 12:56:13;;;;;;;;;;;;;;;;;;5073392;28;19957;-84
2024/01/10 12:58:39;;;;;;;;;;;;;;;;;;5080318;28;19919;-84
2024/01/10 13:01:05;;;;;;;;;;;;;;;;;;5071428;28;19935;-82
2024/01/10 13:03:31;;;;;;;;;;;;;;;;;;5078238;28;19909;-83
2024/01/10 13:05:58;;;;;;;;;;;;;;;;;;5069869;28;19913;-84
2024/01/10 13:08:24;;;;;;;;;;;;;;;;;;5067207;28;19924;-83
2024/01/10 13:10:50;;;;;;;;;;;;;;;;;;5083322;28;20405;-84
2024/01/10 13:13:17;;;;;;;;;;;;;;;;;;5082260;28;20599;-84
2024/01/10 13:15:43;;;;;;;;;;;;;;;;;;5086749;28;19912;-83
2024/01/10 13:18:12;;;;;;;;;;;;;;;;;;5086148;28;20271;-84
2024/01/10 13:20:39;;;;;;;;;;;;;;;;;;5086301;28;19920;-84
2024/01/10 13:23:04;;;;;;;;;;;;;;;;;;5089722;28;19923;-84
2024/01/10 13:25:30;;;;;;;;;;;;;;;;;;5083119;28;20312;-85
2024/01/10 13:27:57;;;;;;;;;;;;;;;;;;5089056;28;19942;-85
2024/01/10 13:30:23;;;;;;;;;;;;;;;;;;5087531;28;20025;-84
2024/01/10 13:32:48;;;;;;;;;;;;;;;;;;5076025;28;19949;-84
2024/01/10 13:35:16;;;;;;;;;;;;;;;;;;5076513;28;19938;-84
2024/01/10 13:37:41;;;;;;;;;;;;;;;;;;5080194;28;19919;-84
2024/01/10 13:40:07;;;;;;;;;;;;;;;;;;5087651;28;20006;-84
2024/01/10 13:42:33;;;;;;;;;;;;;;;;;;5085989;28;19924;-85
2024/01/10 13:44:59;;;;;;;;;;;;;;;;;;5081164;28;19916;-85
2024/01/10 13:47:25;;;;;;;;;;;;;;;;;;5087757;28;19923;-85
2024/01/10 13:49:51;;;;;;;;;;;;;;;;;;5086875;28;19916;-84
2024/01/10 13:52:17;;;;;;;;;;;;;;;;;;5085235;28;19926;-84
2024/01/10 13:54:43;;;;;;;;;;;;;;;;;;5084793;28;19938;-85
2024/01/10 13:57:09;;;;;;;;;;;;;;;;;;5068560;28;19908;-85
2024/01/10 13:59:35;;;;;;;;;;;;;;;;;;5078078;28;19913;-85
2024/01/10 14:02:00;;;;;;;;;;;;;;;;;;5078951;28;19920;-83
2024/01/10 14:04:26;;;;;;;;;;;;;;;;;;5086883;28;20441;-86
2024/01/10 14:06:52;;;;;;;;;;;;;;;;;;5079048;28;19927;-85
2024/01/10 14:09:18;;;;;;;;;;;;;;;;;;5075354;28;19969;-86
2024/01/10 14:11:49;;;;;;;;;;;;;;;;;;5088449;28;19908;-86
2024/01/10 14:14:15;;;;;;;;;;;;;;;;;;5078485;28;20019;-85
2024/01/10 14:16:41;;;;;;;;;;;;;;;;;;5082625;28;19927;-86
2024/01/10 14:19:07;;;;;;;;;;;;;;;;;;5077120;28;19917;-80
2024/01/10 14:21:33;;;;;;;;;;;;;;;;;;5082625;28;20394;-77
2024/01/10 14:23:58;;;;;;;;;;;;;;;;;;5087011;28;20337;-78
2024/01/10 14:26:26;;;;;;;;;;;;;;;;;;5087924;28;20011;-79
2024/01/10 14:28:55;;;;;;;;;;;;;;;;;;5078663;28;20011;-79
2024/01/10 14:31:21;;;;;;;;;;;;;;;;;;5082820;28;19990;-78
2024/01/10 14:33:46;;;;;;;;;;;;;;;;;;5086736;28;20351;-80
2024/01/10 14:36:12;;;;;;;;;;;;;;;;;;5088942;28;19912;-77
2024/01/10 14:38:38;;;;;;;;;;;;;;;;;;5088635;28;20002;-85
2024/01/10 14:41:04;;;;;;;;;;;;;;;;;;5088523;28;19935;-82
2024/01/10 14:43:30;;;;;;;;;;;;;;;;;;5087803;28;19916;-89
2024/01/10 14:45:56;;;;;;;;;;;;;;;;;;5075194;28;19908;-78
2024/01/10 14:48:22;;;;;;;;;;;;;;;;;;5081901;28;19916;-78
2024/01/10 14:50:48;;;;;;;;;;;;;;;;;;5077227;28;20015;-79
2024/01/10 14:53:14;;;;;;;;;;;;;;;;;;5078906;28;19916;-78
2024/01/10 14:55:39;;;;;;;;;;;;;;;;;;5081833;28;20295;-77
2024/01/10 14:58:06;;;;;;;;;;;;;;;;;;5087664;28;19916;-79
2024/01/10 15:00:32;;;;;;;;;;;;;;;;;;5090148;28;19916;-77
2024/01/10 15:02:58;;;;;;;;;;;;;;;;;;5083506;28;20303;-78
2024/01/10 15:05:25;;;;;;;;;;;;;;;;;;5077255;28;20256;-81
2024/01/10 15:07:51;;;;;;;;;;;;;;;;;;5074958;28;19916;-84
2024/01/10 15:10:16;;;;;;;;;;;;;;;;;;5085531;28;19912;-81
2024/01/10 15:12:43;;;;;;;;;;;;;;;;;;5089968;28;19919;-79
2024/01/10 15:15:09;;;;;;;;;;;;;;;;;;5087153;28;19923;-83
2024/01/10 15:17:35;;;;;;;;;;;;;;;;;;5086900;28;19912;-80
2024/01/10 15:20:01;;;;;;;;;;;;;;;;;;5082472;28;19942;-80
2024/01/10 15:22:27;;;;;;;;;;;;;;;;;;5082390;28;19923;-87
2024/01/10 15:24:52;;;;;;;;;;;;;;;;;;5087275;28;20430;-87
2024/01/10 15:27:18;;;;;;;;;;;;;;;;;;5077725;28;19970;-86
2024/01/10 15:29:44;;;;;;;;;;;;;;;;;;5084845;28;19916;-80
2024/01/10 15:32:10;;;;;;;;;;;;;;;;;;5085322;28;19919;-79
2024/01/10 15:34:38;;;;;;;;;;;;;;;;;;5072843;28;19912;-82
2024/01/10 15:37:03;;;;;;;;;;;;;;;;;;5078727;28;19920;-83
2024/01/10 15:39:30;;;;;;;;;;;;;;;;;;5090087;28;19923;-83
2024/01/10 15:41:55;;;;;;;;;;;;;;;;;;5084251;28;19916;-83
2024/01/10 15:44:21;;;;;;;;;;;;;;;;;;5074284;28;20294;-84
2024/01/10 15:46:47;;;;;;;;;;;;;;;;;;5079061;28;19920;-83
2024/01/10 15:49:13;;;;;;;;;;;;;;;;;;5084863;28;19960;-79
2024/01/10 15:51:39;;;;;;;;;;;;;;;;;;5088461;28;19965;-85
2024/01/10 15:54:05;;;;;;;;;;;;;;;;;;5070715;28;20259;-83
2024/01/10 15:56:33;;;;;;;;;;;;;;;;;;5087724;28;20362;-83
2024/01/10 15:58:59;;;;;;;;;;;;;;;;;;5083987;28;20137;-80
2024/01/10 16:01:24;;;;;;;;;;;;;;;;;;5087244;28;20019;-83
2024/01/10 16:03:50;;;;;;;;;;;;;;;;;;5083566;28;19920;-85
2024/01/10 16:06:16;;;;;;;;;;;;;;;;;;5081072;28;19908;-76
2024/01/10 16:08:42;;;;;;;;;;;;;;;;;;5073202;28;20007;-85
2024/01/10 16:11:08;;;;;;;;;;;;;;;;;;5083817;28;20356;-86
2024/01/10 16:13:34;;;;;;;;;;;;;;;;;;5091162;28;19946;-84
2024/01/10 16:16:02;;;;;;;;;;;;;;;;;;5088364;28;19964;-83
2024/01/10 16:18:28;;;;;;;;;;;;;;;;;;5080806;28;19916;-85
2024/01/10 16:20:54;;;;;;;;;;;;;;;;;;5085580;28;20400;-83
2024/01/10 16:23:20;;;;;;;;;;;;;;;;;;5076047;28;19955;-84
2024/01/10 16:25:46;;;;;;;;;;;;;;;;;;5078251;28;19999;-83
2024/01/10 16:28:12;;;;;;;;;;;;;;;;;;5087835;28;20401;-84
2024/01/10 16:30:38;;;;;;;;;;;;;;;;;;5077837;28;19999;-84
2024/01/10 16:33:05;;;;;;;;;;;;;;;;;;5080534;28;19915;-84
2024/01/10 16:35:30;;;;;;;;;;;;;;;;;;5084922;28;20590;-85
2024/01/10 16:37:56;;;;;;;;;;;;;;;;;;5085590;28;19916;-84